createdAt,value
2023-04-20T00:04:37.711Z,0.00
2023-04-20T00:09:37.628Z,0.00
2023-04-20T00:14:37.548Z,0.00
2023-04-20T00:19:37.502Z,0.00
2023-04-20T00:24:37.413Z,0.00
2023-04-20T00:29:37.523Z,0.00
2023-04-20T00:34:37.271Z,0.00
2023-04-20T00:39:37.212Z,0.00
2023-04-20T00:44:37.145Z,0.00
2023-04-20T00:49:37.084Z,0.00
2023-04-20T00:54:37.011Z,0.00
2023-04-20T00:59:36.939Z,0.00
2023-04-20T01:04:37.087Z,0.00
2023-04-20T01:09:36.803Z,0.00
2023-04-20T01:14:36.814Z,0.00
2023-04-20T01:19:36.669Z,0.00
2023-04-20T01:24:36.605Z,0.00
2023-04-20T01:29:36.531Z,0.00
2023-04-20T01:34:36.462Z,0.00
2023-04-20T01:39:36.446Z,0.00
2023-04-20T01:44:36.322Z,0.00
2023-04-20T01:49:36.267Z,0.00
2023-04-20T01:54:36.188Z,0.00
2023-04-20T01:59:36.137Z,0.00
2023-04-20T02:04:36.054Z,0.00
2023-04-20T02:09:35.996Z,0.00
2023-04-20T02:14:35.936Z,0.00
2023-04-20T02:19:35.863Z,0.00
2023-04-20T02:24:35.806Z,0.00
2023-04-20T02:29:35.721Z,0.00
2023-04-20T02:34:35.652Z,0.00
2023-04-20T02:39:35.583Z,0.00
2023-04-20T02:44:35.517Z,0.00
2023-04-20T02:49:35.444Z,0.00
2023-04-20T02:54:35.372Z,0.00
2023-04-20T02:59:35.327Z,0.00
2023-04-20T03:04:35.404Z,0.00
2023-04-20T03:09:35.187Z,0.00
2023-04-20T03:14:35.121Z,0.00
2023-04-20T03:19:35.052Z,0.00
2023-04-20T03:24:34.964Z,0.00
2023-04-20T03:29:34.920Z,0.00
2023-04-20T03:34:34.826Z,0.00
2023-04-20T03:39:34.767Z,0.00
2023-04-20T03:44:34.690Z,0.00
2023-04-20T03:49:34.627Z,4.00
2023-04-20T03:54:34.564Z,12.00
2023-04-20T03:59:34.503Z,16.00
2023-04-20T04:04:34.539Z,40.00
2023-04-20T04:09:34.370Z,68.00
2023-04-20T04:14:34.288Z,132.00
2023-04-20T04:19:34.231Z,152.00
2023-04-20T04:24:34.155Z,204.00
2023-04-20T04:29:34.094Z,284.00
2023-04-20T04:34:34.020Z,320.00
2023-04-20T04:39:33.973Z,324.00
2023-04-20T04:44:33.883Z,420.00
2023-04-20T04:49:33.825Z,432.00
2023-04-20T04:54:33.761Z,336.00
2023-04-20T04:59:33.700Z,520.00
2023-04-20T05:04:33.787Z,732.00
2023-04-20T05:09:33.610Z,712.00
2023-04-20T05:14:33.485Z,1172.00
2023-04-20T05:19:33.418Z,1440.00
2023-04-20T05:24:33.340Z,2292.00
2023-04-20T05:29:33.282Z,3052.00
2023-04-20T05:34:33.207Z,2924.00
2023-04-20T05:39:33.149Z,1740.00
2023-04-20T05:44:33.070Z,1664.00
2023-04-20T05:49:33.016Z,1376.00
2023-04-20T05:54:32.950Z,2016.00
2023-04-20T05:59:32.911Z,1912.00
2023-04-20T06:04:33.056Z,2252.00
2023-04-20T06:09:32.743Z,2636.00
2023-04-20T06:14:32.668Z,2188.00
2023-04-20T06:19:32.603Z,1676.00
2023-04-20T06:24:32.529Z,1852.00
2023-04-20T06:29:32.481Z,1492.00
2023-04-20T06:34:32.415Z,2240.00
2023-04-20T06:39:32.331Z,3448.00
2023-04-20T06:44:32.251Z,3732.00
2023-04-20T06:49:32.193Z,4708.00
2023-04-20T06:54:32.117Z,3496.00
2023-04-20T06:59:32.054Z,4184.00
2023-04-20T07:04:32.005Z,8008.00
2023-04-20T07:09:31.925Z,26048.00
2023-04-20T07:14:31.848Z,10404.00
2023-04-20T07:19:31.786Z,9216.00
2023-04-20T07:24:31.718Z,8104.00
2023-04-20T07:29:33.844Z,34208.00
2023-04-20T07:34:31.575Z,83072.00
2023-04-20T07:39:31.518Z,89472.00
2023-04-20T07:44:31.462Z,23968.00
2023-04-20T07:49:31.390Z,91136.00
2023-04-20T07:54:31.313Z,87040.00
2023-04-20T07:59:31.253Z,23008.00
2023-04-20T08:04:31.436Z,20224.00
2023-04-20T08:09:31.122Z,55136.00
2023-04-20T08:14:31.044Z,55680.00
2023-04-20T08:19:30.984Z,15336.00
2023-04-20T08:24:30.920Z,81120.00
2023-04-20T08:29:30.937Z,76640.00
2023-04-20T08:34:30.774Z,52960.00
2023-04-20T08:39:30.713Z,23104.00
2023-04-20T08:44:30.639Z,38176.00
2023-04-20T08:49:30.586Z,79200.00
2023-04-20T08:54:30.512Z,43264.00
2023-04-20T08:59:30.443Z,79520.00
2023-04-20T09:04:30.492Z,21568.00
2023-04-20T09:09:30.311Z,48064.00
2023-04-20T09:14:30.234Z,82048.00
2023-04-20T09:19:30.172Z,78400.00
2023-04-20T09:24:30.102Z,20896.00
2023-04-20T09:29:30.049Z,24704.00
2023-04-20T09:34:29.966Z,25888.00
2023-04-20T09:39:29.907Z,19936.00
2023-04-20T09:44:29.830Z,30368.00
2023-04-20T09:49:29.774Z,40800.00
2023-04-20T09:54:29.697Z,28384.00
2023-04-20T09:59:29.641Z,27520.00
2023-04-20T10:04:29.664Z,19648.00
2023-04-20T10:09:29.509Z,16016.00
2023-04-20T10:14:29.429Z,23424.00
2023-04-20T10:19:29.370Z,28480.00
2023-04-20T10:24:29.294Z,26816.00
2023-04-20T10:29:29.235Z,16896.00
2023-04-20T10:34:29.170Z,14228.00
2023-04-20T10:39:29.129Z,14280.00
2023-04-20T10:44:29.026Z,17664.00
2023-04-20T10:49:28.979Z,18528.00
2023-04-20T10:54:28.955Z,20512.00
2023-04-20T10:59:28.828Z,17664.00
2023-04-20T11:04:28.846Z,14804.00
2023-04-20T11:09:28.711Z,14024.00
2023-04-20T11:14:28.636Z,13104.00
2023-04-20T11:19:28.558Z,12252.00
2023-04-20T11:24:28.503Z,14652.00
2023-04-20T11:29:28.443Z,15424.00
2023-04-20T11:34:28.370Z,15340.00
2023-04-20T11:39:28.304Z,13288.00
2023-04-20T11:44:28.244Z,7300.00
2023-04-20T11:49:28.167Z,5560.00
2023-04-20T11:54:28.113Z,5472.00
2023-04-20T11:59:28.046Z,5760.00
2023-04-20T12:04:28.391Z,4148.00
2023-04-20T12:09:27.895Z,4024.00
2023-04-20T12:14:27.831Z,4200.00
2023-04-20T12:19:27.752Z,5868.00
2023-04-20T12:24:27.696Z,7772.00
2023-04-20T12:29:27.619Z,9840.00
2023-04-20T12:34:27.562Z,13292.00
2023-04-20T12:39:27.494Z,14784.00
2023-04-20T12:44:27.433Z,14756.00
2023-04-20T12:49:27.361Z,11796.00
2023-04-20T12:54:27.301Z,9268.00
2023-04-20T12:59:27.233Z,6292.00
2023-04-20T13:04:27.237Z,10296.00
2023-04-20T13:09:27.172Z,9236.00
2023-04-20T13:14:27.033Z,9868.00
2023-04-20T13:19:26.952Z,7100.00
2023-04-20T13:24:26.897Z,6832.00
2023-04-20T13:29:26.839Z,10372.00
2023-04-20T13:34:26.770Z,7456.00
2023-04-20T13:39:26.690Z,8704.00
2023-04-20T13:44:26.634Z,7496.00
2023-04-20T13:49:26.556Z,7008.00
2023-04-20T13:54:26.525Z,5376.00
2023-04-20T13:59:26.424Z,5260.00
2023-04-20T14:04:26.409Z,3496.00
2023-04-20T14:09:26.288Z,2856.00
2023-04-20T14:14:26.236Z,3672.00
2023-04-20T14:19:26.171Z,3684.00
2023-04-20T14:24:26.102Z,3768.00
2023-04-20T14:29:26.036Z,3844.00
2023-04-20T14:34:25.975Z,3272.00
2023-04-20T14:39:25.902Z,3072.00
2023-04-20T14:44:25.856Z,2936.00
2023-04-20T14:49:25.774Z,4032.00
2023-04-20T14:54:25.715Z,3860.00
2023-04-20T14:59:25.628Z,3804.00
2023-04-20T15:04:26.059Z,3544.00
2023-04-20T15:09:25.496Z,3372.00
2023-04-20T15:14:25.536Z,3264.00
2023-04-20T15:19:25.372Z,2488.00
2023-04-20T15:24:25.306Z,3664.00
2023-04-20T15:29:25.254Z,4208.00
2023-04-20T15:34:25.172Z,5468.00
2023-04-20T15:39:25.101Z,6284.00
2023-04-20T15:44:25.044Z,7976.00
2023-04-20T15:49:24.964Z,4504.00
2023-04-20T15:54:24.903Z,5512.00
2023-04-20T15:59:24.828Z,7008.00
2023-04-20T16:04:25.055Z,5688.00
2023-04-20T16:09:24.702Z,5300.00
2023-04-20T16:14:24.642Z,5008.00
2023-04-20T16:19:24.563Z,4956.00
2023-04-20T16:24:24.517Z,4436.00
2023-04-20T16:29:24.530Z,4744.00
2023-04-20T16:34:24.379Z,4472.00
2023-04-20T16:39:24.309Z,3864.00
2023-04-20T16:44:24.244Z,3344.00
2023-04-20T16:49:24.169Z,2832.00
2023-04-20T16:54:24.115Z,2404.00
2023-04-20T16:59:24.040Z,2100.00
2023-04-20T17:04:24.169Z,1740.00
2023-04-20T17:09:23.907Z,1636.00
2023-04-20T17:14:23.860Z,1524.00
2023-04-20T17:19:23.775Z,1508.00
2023-04-20T17:24:23.812Z,1488.00
2023-04-20T17:29:23.798Z,1304.00
2023-04-20T17:34:23.732Z,1084.00
2023-04-20T17:39:23.703Z,916.00
2023-04-20T17:44:23.446Z,764.00
2023-04-20T17:49:23.378Z,636.00
2023-04-20T17:54:23.316Z,512.00
2023-04-20T17:59:23.243Z,404.00
2023-04-20T18:04:23.658Z,304.00
2023-04-20T18:09:23.109Z,192.00
2023-04-20T18:14:23.066Z,116.00
2023-04-20T18:19:22.986Z,68.00
2023-04-20T18:24:22.925Z,40.00
2023-04-20T18:29:22.852Z,20.00
2023-04-20T18:34:22.787Z,8.00
2023-04-20T18:39:22.708Z,4.00
2023-04-20T18:44:22.899Z,4.00
2023-04-20T18:49:22.578Z,0.00
2023-04-20T18:54:22.521Z,0.00
2023-04-20T18:59:22.442Z,0.00
2023-04-20T19:04:22.704Z,0.00
2023-04-20T19:09:22.316Z,0.00
2023-04-20T19:14:22.252Z,0.00
2023-04-20T19:19:22.182Z,0.00
2023-04-20T19:24:22.163Z,0.00
2023-04-20T19:29:22.102Z,0.00
2023-04-20T19:34:22.149Z,0.00
2023-04-20T19:39:22.160Z,0.00
2023-04-20T19:44:22.203Z,0.00
2023-04-20T19:49:22.206Z,0.00
2023-04-20T19:54:22.171Z,0.00
2023-04-20T19:59:22.148Z,0.00
2023-04-20T20:04:21.776Z,0.00
2023-04-20T20:09:24.006Z,0.00
2023-04-20T20:14:21.457Z,0.00
2023-04-20T20:19:21.385Z,0.00
2023-04-20T20:24:21.326Z,0.00
2023-04-20T20:29:21.401Z,0.00
2023-04-20T20:34:21.190Z,0.00
2023-04-20T20:39:21.297Z,0.00
2023-04-20T20:44:21.084Z,0.00
2023-04-20T20:49:21.075Z,0.00
2023-04-20T20:54:20.927Z,0.00
2023-04-20T20:59:21.061Z,0.00
2023-04-20T21:04:20.819Z,0.00
2023-04-20T21:09:21.038Z,0.00
2023-04-20T21:14:20.674Z,0.00
2023-04-20T21:19:20.911Z,0.00
2023-04-20T21:24:20.540Z,0.00
2023-04-20T21:29:20.673Z,0.00
2023-04-20T21:34:20.406Z,0.00
2023-04-20T21:39:20.607Z,0.00
2023-04-20T21:44:20.259Z,0.00
2023-04-20T21:49:20.466Z,0.00
2023-04-20T21:54:20.126Z,0.00
2023-04-20T21:59:20.325Z,0.00
2023-04-20T22:04:20.242Z,0.00
2023-04-20T22:09:20.140Z,0.00
2023-04-20T22:14:19.866Z,0.00
2023-04-20T22:19:19.873Z,0.00
2023-04-20T22:24:19.737Z,0.00
2023-04-20T22:29:19.888Z,0.00
2023-04-20T22:34:19.600Z,0.00
2023-04-20T22:39:19.764Z,0.00
2023-04-20T22:44:19.463Z,0.00
2023-04-20T22:49:19.522Z,0.00
2023-04-20T22:54:19.328Z,0.00
2023-04-20T22:59:19.467Z,0.00
2023-04-20T23:04:19.232Z,0.00
2023-04-20T23:09:19.321Z,0.00
2023-04-20T23:14:19.057Z,0.00
2023-04-20T23:19:19.172Z,0.00
2023-04-20T23:24:18.925Z,0.00
2023-04-20T23:29:19.041Z,0.00
2023-04-20T23:34:18.803Z,0.00
2023-04-20T23:39:19.097Z,0.00
2023-04-20T23:44:18.659Z,0.00
2023-04-20T23:49:18.928Z,0.00
2023-04-20T23:54:18.527Z,0.00
2023-04-20T23:59:18.657Z,0.00
